<?xml version="1.0" encoding="UTF-8" standalone="no" ?>
<gpx xmlns="http://www.topografix.com/GPX/1/1" xmlns:xsi="http://www.w3.org/2001/XMLSchema-instance" xsi:schemaLocation="http://www.topografix.com/GPX/1/1 http://www.topografix.com/GPX/1/1/gpx.xsd" version="1.1" creator="VisuGPX - https://www.visugpx.com">
  <metadata>
    <name>11573339-La Vigneronde - La Croix de Chirol</name>
  </metadata>
  <trk>
    <name><![CDATA[11573339-La Vigneronde - La Croix de Chirol]]></name>
    <trkseg>
      <trkpt lat="45.23669" lon="4.61564">
        <ele>403</ele>
        <time>2021-05-26T17:43:10Z</time>
      </trkpt>
      <trkpt lat="45.23675" lon="4.61553">
        <ele>404</ele>
        <time>2021-05-26T17:43:23Z</time>
      </trkpt>
      <trkpt lat="45.23656" lon="4.61406">
        <ele>404</ele>
        <time>2021-05-26T17:45:44Z</time>
      </trkpt>
      <trkpt lat="45.23667" lon="4.61415">
        <ele>405</ele>
        <time>2021-05-26T17:46:00Z</time>
      </trkpt>
      <trkpt lat="45.23699" lon="4.61454">
        <ele>407</ele>
        <time>2021-05-26T17:46:57Z</time>
      </trkpt>
      <trkpt lat="45.23749" lon="4.61474">
        <ele>410</ele>
        <time>2021-05-26T17:48:06Z</time>
      </trkpt>
      <trkpt lat="45.23755" lon="4.61479">
        <ele>410</ele>
        <time>2021-05-26T17:48:15Z</time>
      </trkpt>
      <trkpt lat="45.23765" lon="4.61482">
        <ele>411</ele>
        <time>2021-05-26T17:48:29Z</time>
      </trkpt>
      <trkpt lat="45.23773" lon="4.61478">
        <ele>412</ele>
        <time>2021-05-26T17:48:40Z</time>
      </trkpt>
      <trkpt lat="45.23835" lon="4.61422">
        <ele>428</ele>
        <time>2021-05-26T17:50:18Z</time>
      </trkpt>
      <trkpt lat="45.2385" lon="4.61414">
        <ele>431</ele>
        <time>2021-05-26T17:50:40Z</time>
      </trkpt>
      <trkpt lat="45.23859" lon="4.61406">
        <ele>433</ele>
        <time>2021-05-26T17:50:54Z</time>
      </trkpt>
      <trkpt lat="45.23871" lon="4.61394">
        <ele>436</ele>
        <time>2021-05-26T17:51:13Z</time>
      </trkpt>
      <trkpt lat="45.23912" lon="4.61337">
        <ele>449</ele>
        <time>2021-05-26T17:52:30Z</time>
      </trkpt>
      <trkpt lat="45.23954" lon="4.61297">
        <ele>454</ele>
        <time>2021-05-26T17:53:38Z</time>
      </trkpt>
      <trkpt lat="45.24007" lon="4.61221">
        <ele>464</ele>
        <time>2021-05-26T17:55:18Z</time>
      </trkpt>
      <trkpt lat="45.2403" lon="4.61172">
        <ele>469</ele>
        <time>2021-05-26T17:56:13Z</time>
      </trkpt>
      <trkpt lat="45.24056" lon="4.61108">
        <ele>476</ele>
        <time>2021-05-26T17:57:23Z</time>
      </trkpt>
      <trkpt lat="45.24066" lon="4.61092">
        <ele>479</ele>
        <time>2021-05-26T17:57:43Z</time>
      </trkpt>
      <trkpt lat="45.24088" lon="4.61064">
        <ele>483</ele>
        <time>2021-05-26T17:58:22Z</time>
      </trkpt>
      <trkpt lat="45.24098" lon="4.61058">
        <ele>484</ele>
        <time>2021-05-26T17:58:37Z</time>
      </trkpt>
      <trkpt lat="45.24119" lon="4.61052">
        <ele>486</ele>
        <time>2021-05-26T17:59:05Z</time>
      </trkpt>
      <trkpt lat="45.24124" lon="4.61049">
        <ele>487</ele>
        <time>2021-05-26T17:59:13Z</time>
      </trkpt>
      <trkpt lat="45.24127" lon="4.61042">
        <ele>488</ele>
        <time>2021-05-26T17:59:20Z</time>
      </trkpt>
      <trkpt lat="45.24125" lon="4.61027">
        <ele>489</ele>
        <time>2021-05-26T17:59:35Z</time>
      </trkpt>
      <trkpt lat="45.24114" lon="4.60995">
        <ele>491</ele>
        <time>2021-05-26T18:00:08Z</time>
      </trkpt>
      <trkpt lat="45.24114" lon="4.60966">
        <ele>492</ele>
        <time>2021-05-26T18:00:35Z</time>
      </trkpt>
      <trkpt lat="45.2412" lon="4.60946">
        <ele>495</ele>
        <time>2021-05-26T18:00:56Z</time>
      </trkpt>
      <trkpt lat="45.24116" lon="4.60911">
        <ele>496</ele>
        <time>2021-05-26T18:01:29Z</time>
      </trkpt>
      <trkpt lat="45.24105" lon="4.60871">
        <ele>494</ele>
        <time>2021-05-26T18:02:09Z</time>
      </trkpt>
      <trkpt lat="45.2408" lon="4.60807">
        <ele>491</ele>
        <time>2021-05-26T18:03:18Z</time>
      </trkpt>
      <trkpt lat="45.24053" lon="4.60758">
        <ele>490</ele>
        <time>2021-05-26T18:04:17Z</time>
      </trkpt>
      <trkpt lat="45.24049" lon="4.60746">
        <ele>490</ele>
        <time>2021-05-26T18:04:29Z</time>
      </trkpt>
      <trkpt lat="45.24051" lon="4.60738">
        <ele>489</ele>
        <time>2021-05-26T18:04:37Z</time>
      </trkpt>
      <trkpt lat="45.24056" lon="4.60732">
        <ele>489</ele>
        <time>2021-05-26T18:04:46Z</time>
      </trkpt>
      <trkpt lat="45.24097" lon="4.60701">
        <ele>490</ele>
        <time>2021-05-26T18:05:48Z</time>
      </trkpt>
      <trkpt lat="45.24117" lon="4.60673">
        <ele>490</ele>
        <time>2021-05-26T18:06:25Z</time>
      </trkpt>
      <trkpt lat="45.24128" lon="4.60662">
        <ele>491</ele>
        <time>2021-05-26T18:06:43Z</time>
      </trkpt>
      <trkpt lat="45.24131" lon="4.60653">
        <ele>492</ele>
        <time>2021-05-26T18:06:53Z</time>
      </trkpt>
      <trkpt lat="45.24138" lon="4.60554">
        <ele>492</ele>
        <time>2021-05-26T18:08:26Z</time>
      </trkpt>
      <trkpt lat="45.24132" lon="4.60537">
        <ele>490</ele>
        <time>2021-05-26T18:08:44Z</time>
      </trkpt>
      <trkpt lat="45.24134" lon="4.60523">
        <ele>490</ele>
        <time>2021-05-26T18:08:57Z</time>
      </trkpt>
      <trkpt lat="45.24132" lon="4.605">
        <ele>489</ele>
        <time>2021-05-26T18:09:19Z</time>
      </trkpt>
      <trkpt lat="45.24122" lon="4.60459">
        <ele>484</ele>
        <time>2021-05-26T18:10:00Z</time>
      </trkpt>
      <trkpt lat="45.24106" lon="4.60423">
        <ele>478</ele>
        <time>2021-05-26T18:10:40Z</time>
      </trkpt>
      <trkpt lat="45.24085" lon="4.60398">
        <ele>472</ele>
        <time>2021-05-26T18:11:17Z</time>
      </trkpt>
      <trkpt lat="45.24043" lon="4.60376">
        <ele>462</ele>
        <time>2021-05-26T18:12:16Z</time>
      </trkpt>
      <trkpt lat="45.23998" lon="4.6033">
        <ele>453</ele>
        <time>2021-05-26T18:13:30Z</time>
      </trkpt>
      <trkpt lat="45.23975" lon="4.60314">
        <ele>448</ele>
        <time>2021-05-26T18:14:04Z</time>
      </trkpt>
      <trkpt lat="45.23959" lon="4.60306">
        <ele>445</ele>
        <time>2021-05-26T18:14:27Z</time>
      </trkpt>
      <trkpt lat="45.23928" lon="4.60299">
        <ele>439</ele>
        <time>2021-05-26T18:15:09Z</time>
      </trkpt>
      <trkpt lat="45.23885" lon="4.60268">
        <ele>429</ele>
        <time>2021-05-26T18:16:13Z</time>
      </trkpt>
      <trkpt lat="45.23889" lon="4.60242">
        <ele>430</ele>
        <time>2021-05-26T18:16:38Z</time>
      </trkpt>
      <trkpt lat="45.23887" lon="4.60232">
        <ele>430</ele>
        <time>2021-05-26T18:16:48Z</time>
      </trkpt>
      <trkpt lat="45.23919" lon="4.60233">
        <ele>437</ele>
        <time>2021-05-26T18:17:31Z</time>
      </trkpt>
      <trkpt lat="45.23943" lon="4.6025">
        <ele>440</ele>
        <time>2021-05-26T18:18:07Z</time>
      </trkpt>
      <trkpt lat="45.23982" lon="4.60268">
        <ele>449</ele>
        <time>2021-05-26T18:19:01Z</time>
      </trkpt>
      <trkpt lat="45.24051" lon="4.6028">
        <ele>459</ele>
        <time>2021-05-26T18:20:34Z</time>
      </trkpt>
      <trkpt lat="45.24107" lon="4.60283">
        <ele>466</ele>
        <time>2021-05-26T18:21:49Z</time>
      </trkpt>
      <trkpt lat="45.24156" lon="4.60274">
        <ele>469</ele>
        <time>2021-05-26T18:22:55Z</time>
      </trkpt>
      <trkpt lat="45.24191" lon="4.60271">
        <ele>471</ele>
        <time>2021-05-26T18:23:42Z</time>
      </trkpt>
      <trkpt lat="45.24242" lon="4.60271">
        <ele>474</ele>
        <time>2021-05-26T18:24:50Z</time>
      </trkpt>
      <trkpt lat="45.2427" lon="4.60278">
        <ele>478</ele>
        <time>2021-05-26T18:25:28Z</time>
      </trkpt>
      <trkpt lat="45.24313" lon="4.60293">
        <ele>485</ele>
        <time>2021-05-26T18:26:27Z</time>
      </trkpt>
      <trkpt lat="45.24335" lon="4.60307">
        <ele>490</ele>
        <time>2021-05-26T18:26:59Z</time>
      </trkpt>
      <trkpt lat="45.24366" lon="4.60322">
        <ele>494</ele>
        <time>2021-05-26T18:27:43Z</time>
      </trkpt>
      <trkpt lat="45.24375" lon="4.60324">
        <ele>495</ele>
        <time>2021-05-26T18:27:55Z</time>
      </trkpt>
      <trkpt lat="45.24384" lon="4.60321">
        <ele>495</ele>
        <time>2021-05-26T18:28:07Z</time>
      </trkpt>
      <trkpt lat="45.24392" lon="4.60313">
        <ele>495</ele>
        <time>2021-05-26T18:28:20Z</time>
      </trkpt>
      <trkpt lat="45.24404" lon="4.60287">
        <ele>493</ele>
        <time>2021-05-26T18:28:49Z</time>
      </trkpt>
      <trkpt lat="45.24412" lon="4.60282">
        <ele>493</ele>
        <time>2021-05-26T18:29:01Z</time>
      </trkpt>
      <trkpt lat="45.24424" lon="4.60284">
        <ele>493</ele>
        <time>2021-05-26T18:29:17Z</time>
      </trkpt>
      <trkpt lat="45.24437" lon="4.60295">
        <ele>493</ele>
        <time>2021-05-26T18:29:37Z</time>
      </trkpt>
      <trkpt lat="45.24455" lon="4.60317">
        <ele>497</ele>
        <time>2021-05-26T18:30:09Z</time>
      </trkpt>
      <trkpt lat="45.24524" lon="4.60379">
        <ele>509</ele>
        <time>2021-05-26T18:31:58Z</time>
      </trkpt>
      <trkpt lat="45.2458" lon="4.60446">
        <ele>520</ele>
        <time>2021-05-26T18:33:36Z</time>
      </trkpt>
      <trkpt lat="45.24598" lon="4.60481">
        <ele>524</ele>
        <time>2021-05-26T18:34:16Z</time>
      </trkpt>
      <trkpt lat="45.24619" lon="4.6055">
        <ele>532</ele>
        <time>2021-05-26T18:35:27Z</time>
      </trkpt>
      <trkpt lat="45.24623" lon="4.6059">
        <ele>538</ele>
        <time>2021-05-26T18:36:05Z</time>
      </trkpt>
      <trkpt lat="45.24628" lon="4.60604">
        <ele>540</ele>
        <time>2021-05-26T18:36:20Z</time>
      </trkpt>
      <trkpt lat="45.24637" lon="4.60616">
        <ele>541</ele>
        <time>2021-05-26T18:36:36Z</time>
      </trkpt>
      <trkpt lat="45.24645" lon="4.60622">
        <ele>542</ele>
        <time>2021-05-26T18:36:48Z</time>
      </trkpt>
      <trkpt lat="45.24691" lon="4.60639">
        <ele>543</ele>
        <time>2021-05-26T18:37:52Z</time>
      </trkpt>
      <trkpt lat="45.2473" lon="4.60673">
        <ele>549</ele>
        <time>2021-05-26T18:38:53Z</time>
      </trkpt>
      <trkpt lat="45.24736" lon="4.60685">
        <ele>551</ele>
        <time>2021-05-26T18:39:07Z</time>
      </trkpt>
      <trkpt lat="45.24769" lon="4.60718">
        <ele>555</ele>
        <time>2021-05-26T18:40:00Z</time>
      </trkpt>
      <trkpt lat="45.24777" lon="4.60733">
        <ele>557</ele>
        <time>2021-05-26T18:40:18Z</time>
      </trkpt>
      <trkpt lat="45.24785" lon="4.60736">
        <ele>557</ele>
        <time>2021-05-26T18:40:29Z</time>
      </trkpt>
      <trkpt lat="45.24799" lon="4.60756">
        <ele>559</ele>
        <time>2021-05-26T18:40:56Z</time>
      </trkpt>
      <trkpt lat="45.24808" lon="4.60774">
        <ele>561</ele>
        <time>2021-05-26T18:41:16Z</time>
      </trkpt>
      <trkpt lat="45.24822" lon="4.60788">
        <ele>561</ele>
        <time>2021-05-26T18:41:39Z</time>
      </trkpt>
      <trkpt lat="45.24831" lon="4.60791">
        <ele>561</ele>
        <time>2021-05-26T18:41:52Z</time>
      </trkpt>
      <trkpt lat="45.24844" lon="4.60802">
        <ele>563</ele>
        <time>2021-05-26T18:42:12Z</time>
      </trkpt>
      <trkpt lat="45.2485" lon="4.60802">
        <ele>563</ele>
        <time>2021-05-26T18:42:20Z</time>
      </trkpt>
      <trkpt lat="45.24874" lon="4.60854">
        <ele>570</ele>
        <time>2021-05-26T18:43:18Z</time>
      </trkpt>
      <trkpt lat="45.24894" lon="4.60885">
        <ele>574</ele>
        <time>2021-05-26T18:43:58Z</time>
      </trkpt>
      <trkpt lat="45.24911" lon="4.60953">
        <ele>583</ele>
        <time>2021-05-26T18:45:06Z</time>
      </trkpt>
      <trkpt lat="45.24927" lon="4.60946">
        <ele>583</ele>
        <time>2021-05-26T18:45:28Z</time>
      </trkpt>
      <trkpt lat="45.24937" lon="4.60947">
        <ele>583</ele>
        <time>2021-05-26T18:45:41Z</time>
      </trkpt>
      <trkpt lat="45.24948" lon="4.60975">
        <ele>587</ele>
        <time>2021-05-26T18:46:11Z</time>
      </trkpt>
      <trkpt lat="45.24959" lon="4.60978">
        <ele>588</ele>
        <time>2021-05-26T18:46:26Z</time>
      </trkpt>
      <trkpt lat="45.24965" lon="4.60983">
        <ele>589</ele>
        <time>2021-05-26T18:46:36Z</time>
      </trkpt>
      <trkpt lat="45.24971" lon="4.60993">
        <ele>590</ele>
        <time>2021-05-26T18:46:48Z</time>
      </trkpt>
      <trkpt lat="45.24989" lon="4.61072">
        <ele>605</ele>
        <time>2021-05-26T18:48:06Z</time>
      </trkpt>
      <trkpt lat="45.24989" lon="4.61082">
        <ele>607</ele>
        <time>2021-05-26T18:48:15Z</time>
      </trkpt>
      <trkpt lat="45.24984" lon="4.61092">
        <ele>608</ele>
        <time>2021-05-26T18:48:27Z</time>
      </trkpt>
      <trkpt lat="45.24982" lon="4.61103">
        <ele>610</ele>
        <time>2021-05-26T18:48:38Z</time>
      </trkpt>
      <trkpt lat="45.24995" lon="4.61151">
        <ele>619</ele>
        <time>2021-05-26T18:49:26Z</time>
      </trkpt>
      <trkpt lat="45.25018" lon="4.61191">
        <ele>626</ele>
        <time>2021-05-26T18:50:14Z</time>
      </trkpt>
      <trkpt lat="45.25026" lon="4.61197">
        <ele>628</ele>
        <time>2021-05-26T18:50:26Z</time>
      </trkpt>
      <trkpt lat="45.25061" lon="4.61241">
        <ele>636</ele>
        <time>2021-05-26T18:51:29Z</time>
      </trkpt>
      <trkpt lat="45.25077" lon="4.61255">
        <ele>638</ele>
        <time>2021-05-26T18:51:54Z</time>
      </trkpt>
      <trkpt lat="45.25091" lon="4.61283">
        <ele>640</ele>
        <time>2021-05-26T18:52:26Z</time>
      </trkpt>
      <trkpt lat="45.25154" lon="4.61345">
        <ele>643</ele>
        <time>2021-05-26T18:54:08Z</time>
      </trkpt>
      <trkpt lat="45.2517" lon="4.61355">
        <ele>642</ele>
        <time>2021-05-26T18:54:32Z</time>
      </trkpt>
      <trkpt lat="45.25195" lon="4.61362">
        <ele>644</ele>
        <time>2021-05-26T18:55:06Z</time>
      </trkpt>
      <trkpt lat="45.25234" lon="4.61362">
        <ele>648</ele>
        <time>2021-05-26T18:55:58Z</time>
      </trkpt>
      <trkpt lat="45.25296" lon="4.61394">
        <ele>649</ele>
        <time>2021-05-26T18:57:26Z</time>
      </trkpt>
      <trkpt lat="45.2532" lon="4.61397">
        <ele>652</ele>
        <time>2021-05-26T18:57:58Z</time>
      </trkpt>
      <trkpt lat="45.25343" lon="4.61396">
        <ele>654</ele>
        <time>2021-05-26T18:58:29Z</time>
      </trkpt>
      <trkpt lat="45.25369" lon="4.61389">
        <ele>655</ele>
        <time>2021-05-26T18:59:04Z</time>
      </trkpt>
      <trkpt lat="45.25386" lon="4.61379">
        <ele>657</ele>
        <time>2021-05-26T18:59:29Z</time>
      </trkpt>
      <trkpt lat="45.25411" lon="4.61359">
        <ele>663</ele>
        <time>2021-05-26T19:00:07Z</time>
      </trkpt>
      <trkpt lat="45.25437" lon="4.61324">
        <ele>671</ele>
        <time>2021-05-26T19:00:55Z</time>
      </trkpt>
      <trkpt lat="45.25461" lon="4.61313">
        <ele>671</ele>
        <time>2021-05-26T19:01:28Z</time>
      </trkpt>
      <trkpt lat="45.25493" lon="4.6131">
        <ele>670</ele>
        <time>2021-05-26T19:02:11Z</time>
      </trkpt>
      <trkpt lat="45.25517" lon="4.61314">
        <ele>671</ele>
        <time>2021-05-26T19:02:43Z</time>
      </trkpt>
      <trkpt lat="45.25548" lon="4.61312">
        <ele>674</ele>
        <time>2021-05-26T19:03:25Z</time>
      </trkpt>
      <trkpt lat="45.25558" lon="4.61308">
        <ele>676</ele>
        <time>2021-05-26T19:03:39Z</time>
      </trkpt>
      <trkpt lat="45.2557" lon="4.61298">
        <ele>677</ele>
        <time>2021-05-26T19:03:57Z</time>
      </trkpt>
      <trkpt lat="45.25579" lon="4.6128">
        <ele>679</ele>
        <time>2021-05-26T19:04:18Z</time>
      </trkpt>
      <trkpt lat="45.25596" lon="4.61272">
        <ele>680</ele>
        <time>2021-05-26T19:04:42Z</time>
      </trkpt>
      <trkpt lat="45.25607" lon="4.61272">
        <ele>681</ele>
        <time>2021-05-26T19:04:57Z</time>
      </trkpt>
      <trkpt lat="45.25615" lon="4.61278">
        <ele>682</ele>
        <time>2021-05-26T19:05:09Z</time>
      </trkpt>
      <trkpt lat="45.25656" lon="4.61279">
        <ele>685</ele>
        <time>2021-05-26T19:06:03Z</time>
      </trkpt>
      <trkpt lat="45.2567" lon="4.61269">
        <ele>686</ele>
        <time>2021-05-26T19:06:24Z</time>
      </trkpt>
      <trkpt lat="45.25681" lon="4.61251">
        <ele>687</ele>
        <time>2021-05-26T19:06:47Z</time>
      </trkpt>
      <trkpt lat="45.25695" lon="4.61235">
        <ele>687</ele>
        <time>2021-05-26T19:07:11Z</time>
      </trkpt>
      <trkpt lat="45.25705" lon="4.61228">
        <ele>688</ele>
        <time>2021-05-26T19:07:25Z</time>
      </trkpt>
      <trkpt lat="45.25735" lon="4.61214">
        <ele>690</ele>
        <time>2021-05-26T19:08:08Z</time>
      </trkpt>
      <trkpt lat="45.25746" lon="4.61213">
        <ele>691</ele>
        <time>2021-05-26T19:08:22Z</time>
      </trkpt>
      <trkpt lat="45.25778" lon="4.61197">
        <ele>695</ele>
        <time>2021-05-26T19:09:08Z</time>
      </trkpt>
      <trkpt lat="45.25796" lon="4.61195">
        <ele>696</ele>
        <time>2021-05-26T19:09:32Z</time>
      </trkpt>
      <trkpt lat="45.25885" lon="4.61142">
        <ele>706</ele>
        <time>2021-05-26T19:11:40Z</time>
      </trkpt>
      <trkpt lat="45.25892" lon="4.6114">
        <ele>706</ele>
        <time>2021-05-26T19:11:50Z</time>
      </trkpt>
      <trkpt lat="45.25899" lon="4.61142">
        <ele>707</ele>
        <time>2021-05-26T19:12:00Z</time>
      </trkpt>
      <trkpt lat="45.25925" lon="4.61157">
        <ele>710</ele>
        <time>2021-05-26T19:12:37Z</time>
      </trkpt>
      <trkpt lat="45.25975" lon="4.6117">
        <ele>719</ele>
        <time>2021-05-26T19:13:45Z</time>
      </trkpt>
      <trkpt lat="45.25983" lon="4.61174">
        <ele>720</ele>
        <time>2021-05-26T19:13:56Z</time>
      </trkpt>
      <trkpt lat="45.26" lon="4.61194">
        <ele>722</ele>
        <time>2021-05-26T19:14:26Z</time>
      </trkpt>
      <trkpt lat="45.26013" lon="4.61197">
        <ele>722</ele>
        <time>2021-05-26T19:14:43Z</time>
      </trkpt>
      <trkpt lat="45.26027" lon="4.61195">
        <ele>723</ele>
        <time>2021-05-26T19:15:02Z</time>
      </trkpt>
      <trkpt lat="45.26052" lon="4.61196">
        <ele>725</ele>
        <time>2021-05-26T19:15:35Z</time>
      </trkpt>
      <trkpt lat="45.26077" lon="4.61189">
        <ele>728</ele>
        <time>2021-05-26T19:16:09Z</time>
      </trkpt>
      <trkpt lat="45.261" lon="4.61173">
        <ele>728</ele>
        <time>2021-05-26T19:16:43Z</time>
      </trkpt>
      <trkpt lat="45.26148" lon="4.61099">
        <ele>730</ele>
        <time>2021-05-26T19:18:18Z</time>
      </trkpt>
      <trkpt lat="45.26171" lon="4.61031">
        <ele>733</ele>
        <time>2021-05-26T19:19:29Z</time>
      </trkpt>
      <trkpt lat="45.26214" lon="4.60957">
        <ele>733</ele>
        <time>2021-05-26T19:20:59Z</time>
      </trkpt>
      <trkpt lat="45.26227" lon="4.60945">
        <ele>734</ele>
        <time>2021-05-26T19:21:20Z</time>
      </trkpt>
      <trkpt lat="45.26273" lon="4.60876">
        <ele>740</ele>
        <time>2021-05-26T19:22:49Z</time>
      </trkpt>
      <trkpt lat="45.2632" lon="4.60847">
        <ele>748</ele>
        <time>2021-05-26T19:23:57Z</time>
      </trkpt>
      <trkpt lat="45.26334" lon="4.60846">
        <ele>751</ele>
        <time>2021-05-26T19:24:16Z</time>
      </trkpt>
      <trkpt lat="45.26353" lon="4.60852">
        <ele>754</ele>
        <time>2021-05-26T19:24:42Z</time>
      </trkpt>
      <trkpt lat="45.26375" lon="4.60874">
        <ele>756</ele>
        <time>2021-05-26T19:25:18Z</time>
      </trkpt>
      <trkpt lat="45.2638" lon="4.60885">
        <ele>756</ele>
        <time>2021-05-26T19:25:30Z</time>
      </trkpt>
      <trkpt lat="45.26384" lon="4.60887">
        <ele>757</ele>
        <time>2021-05-26T19:25:36Z</time>
      </trkpt>
      <trkpt lat="45.2639" lon="4.60896">
        <ele>757</ele>
        <time>2021-05-26T19:25:48Z</time>
      </trkpt>
      <trkpt lat="45.26394" lon="4.6086">
        <ele>762</ele>
        <time>2021-05-26T19:26:22Z</time>
      </trkpt>
      <trkpt lat="45.26415" lon="4.60823">
        <ele>770</ele>
        <time>2021-05-26T19:27:06Z</time>
      </trkpt>
      <trkpt lat="45.26455" lon="4.60789">
        <ele>781</ele>
        <time>2021-05-26T19:28:09Z</time>
      </trkpt>
      <trkpt lat="45.26475" lon="4.60767">
        <ele>788</ele>
        <time>2021-05-26T19:28:42Z</time>
      </trkpt>
      <trkpt lat="45.26481" lon="4.60751">
        <ele>791</ele>
        <time>2021-05-26T19:28:59Z</time>
      </trkpt>
      <trkpt lat="45.26498" lon="4.60734">
        <ele>798</ele>
        <time>2021-05-26T19:29:27Z</time>
      </trkpt>
      <trkpt lat="45.26531" lon="4.60674">
        <ele>808</ele>
        <time>2021-05-26T19:30:39Z</time>
      </trkpt>
      <trkpt lat="45.26567" lon="4.60617">
        <ele>823</ele>
        <time>2021-05-26T19:31:51Z</time>
      </trkpt>
      <trkpt lat="45.2657" lon="4.60607">
        <ele>825</ele>
        <time>2021-05-26T19:32:01Z</time>
      </trkpt>
      <trkpt lat="45.26578" lon="4.60537">
        <ele>841</ele>
        <time>2021-05-26T19:33:07Z</time>
      </trkpt>
      <trkpt lat="45.26577" lon="4.60501">
        <ele>848</ele>
        <time>2021-05-26T19:33:41Z</time>
      </trkpt>
      <trkpt lat="45.26582" lon="4.6049">
        <ele>851</ele>
        <time>2021-05-26T19:33:54Z</time>
      </trkpt>
      <trkpt lat="45.26589" lon="4.60486">
        <ele>851</ele>
        <time>2021-05-26T19:34:04Z</time>
      </trkpt>
      <trkpt lat="45.26592" lon="4.6048">
        <ele>852</ele>
        <time>2021-05-26T19:34:10Z</time>
      </trkpt>
      <trkpt lat="45.26594" lon="4.60471">
        <ele>853</ele>
        <time>2021-05-26T19:34:19Z</time>
      </trkpt>
      <trkpt lat="45.26591" lon="4.60457">
        <ele>855</ele>
        <time>2021-05-26T19:34:33Z</time>
      </trkpt>
      <trkpt lat="45.26597" lon="4.60444">
        <ele>857</ele>
        <time>2021-05-26T19:34:48Z</time>
      </trkpt>
      <trkpt lat="45.26623" lon="4.60433">
        <ele>858</ele>
        <time>2021-05-26T19:35:24Z</time>
      </trkpt>
      <trkpt lat="45.26624" lon="4.60394">
        <ele>865</ele>
        <time>2021-05-26T19:36:01Z</time>
      </trkpt>
      <trkpt lat="45.26636" lon="4.6033">
        <ele>878</ele>
        <time>2021-05-26T19:37:03Z</time>
      </trkpt>
      <trkpt lat="45.26634" lon="4.60285">
        <ele>887</ele>
        <time>2021-05-26T19:37:45Z</time>
      </trkpt>
      <trkpt lat="45.26661" lon="4.60248">
        <ele>896</ele>
        <time>2021-05-26T19:38:35Z</time>
      </trkpt>
      <trkpt lat="45.26716" lon="4.60191">
        <ele>895</ele>
        <time>2021-05-26T19:40:06Z</time>
      </trkpt>
      <trkpt lat="45.26707" lon="4.60152">
        <ele>901</ele>
        <time>2021-05-26T19:40:45Z</time>
      </trkpt>
      <trkpt lat="45.26669" lon="4.60157">
        <ele>906</ele>
        <time>2021-05-26T19:41:35Z</time>
      </trkpt>
      <trkpt lat="45.26707" lon="4.60152">
        <ele>901</ele>
        <time>2021-05-26T19:42:26Z</time>
      </trkpt>
      <trkpt lat="45.26731" lon="4.60145">
        <ele>898</ele>
        <time>2021-05-26T19:42:59Z</time>
      </trkpt>
      <trkpt lat="45.26797" lon="4.60117">
        <ele>888</ele>
        <time>2021-05-26T19:44:31Z</time>
      </trkpt>
      <trkpt lat="45.26813" lon="4.60118">
        <ele>886</ele>
        <time>2021-05-26T19:44:52Z</time>
      </trkpt>
      <trkpt lat="45.26825" lon="4.60112">
        <ele>884</ele>
        <time>2021-05-26T19:45:09Z</time>
      </trkpt>
      <trkpt lat="45.26837" lon="4.60111">
        <ele>882</ele>
        <time>2021-05-26T19:45:25Z</time>
      </trkpt>
      <trkpt lat="45.26846" lon="4.60101">
        <ele>882</ele>
        <time>2021-05-26T19:45:41Z</time>
      </trkpt>
      <trkpt lat="45.26862" lon="4.60096">
        <ele>880</ele>
        <time>2021-05-26T19:46:03Z</time>
      </trkpt>
      <trkpt lat="45.26879" lon="4.60099">
        <ele>877</ele>
        <time>2021-05-26T19:46:25Z</time>
      </trkpt>
      <trkpt lat="45.26887" lon="4.60105">
        <ele>875</ele>
        <time>2021-05-26T19:46:37Z</time>
      </trkpt>
      <trkpt lat="45.26913" lon="4.60101">
        <ele>872</ele>
        <time>2021-05-26T19:47:12Z</time>
      </trkpt>
      <trkpt lat="45.26925" lon="4.60095">
        <ele>871</ele>
        <time>2021-05-26T19:47:29Z</time>
      </trkpt>
      <trkpt lat="45.26939" lon="4.60078">
        <ele>871</ele>
        <time>2021-05-26T19:47:54Z</time>
      </trkpt>
      <trkpt lat="45.26955" lon="4.60068">
        <ele>868</ele>
        <time>2021-05-26T19:48:17Z</time>
      </trkpt>
      <trkpt lat="45.26963" lon="4.60071">
        <ele>867</ele>
        <time>2021-05-26T19:48:28Z</time>
      </trkpt>
      <trkpt lat="45.26971" lon="4.60069">
        <ele>866</ele>
        <time>2021-05-26T19:48:39Z</time>
      </trkpt>
      <trkpt lat="45.26989" lon="4.60057">
        <ele>863</ele>
        <time>2021-05-26T19:49:06Z</time>
      </trkpt>
      <trkpt lat="45.26997" lon="4.60057">
        <ele>862</ele>
        <time>2021-05-26T19:49:16Z</time>
      </trkpt>
      <trkpt lat="45.27005" lon="4.60062">
        <ele>861</ele>
        <time>2021-05-26T19:49:28Z</time>
      </trkpt>
      <trkpt lat="45.27017" lon="4.60076">
        <ele>859</ele>
        <time>2021-05-26T19:49:49Z</time>
      </trkpt>
      <trkpt lat="45.27031" lon="4.60109">
        <ele>855</ele>
        <time>2021-05-26T19:50:25Z</time>
      </trkpt>
      <trkpt lat="45.27034" lon="4.60128">
        <ele>852</ele>
        <time>2021-05-26T19:50:43Z</time>
      </trkpt>
      <trkpt lat="45.27032" lon="4.60148">
        <ele>850</ele>
        <time>2021-05-26T19:51:02Z</time>
      </trkpt>
      <trkpt lat="45.27028" lon="4.60167">
        <ele>848</ele>
        <time>2021-05-26T19:51:21Z</time>
      </trkpt>
      <trkpt lat="45.26998" lon="4.6025">
        <ele>835</ele>
        <time>2021-05-26T19:52:48Z</time>
      </trkpt>
      <trkpt lat="45.2699" lon="4.60259">
        <ele>834</ele>
        <time>2021-05-26T19:53:02Z</time>
      </trkpt>
      <trkpt lat="45.26974" lon="4.6027">
        <ele>834</ele>
        <time>2021-05-26T19:53:26Z</time>
      </trkpt>
      <trkpt lat="45.26922" lon="4.60339">
        <ele>824</ele>
        <time>2021-05-26T19:55:01Z</time>
      </trkpt>
      <trkpt lat="45.26817" lon="4.60452">
        <ele>815</ele>
        <time>2021-05-26T19:57:56Z</time>
      </trkpt>
      <trkpt lat="45.26782" lon="4.60493">
        <ele>811</ele>
        <time>2021-05-26T19:58:57Z</time>
      </trkpt>
      <trkpt lat="45.26717" lon="4.60595">
        <ele>801</ele>
        <time>2021-05-26T20:01:06Z</time>
      </trkpt>
      <trkpt lat="45.26712" lon="4.60607">
        <ele>800</ele>
        <time>2021-05-26T20:01:19Z</time>
      </trkpt>
      <trkpt lat="45.26695" lon="4.60634">
        <ele>798</ele>
        <time>2021-05-26T20:01:53Z</time>
      </trkpt>
      <trkpt lat="45.26679" lon="4.60673">
        <ele>793</ele>
        <time>2021-05-26T20:02:36Z</time>
      </trkpt>
      <trkpt lat="45.26678" lon="4.60683">
        <ele>791</ele>
        <time>2021-05-26T20:02:45Z</time>
      </trkpt>
      <trkpt lat="45.26647" lon="4.60769">
        <ele>780</ele>
        <time>2021-05-26T20:04:16Z</time>
      </trkpt>
      <trkpt lat="45.26593" lon="4.6085">
        <ele>777</ele>
        <time>2021-05-26T20:06:01Z</time>
      </trkpt>
      <trkpt lat="45.26537" lon="4.60915">
        <ele>769</ele>
        <time>2021-05-26T20:07:37Z</time>
      </trkpt>
      <trkpt lat="45.26516" lon="4.60933">
        <ele>766</ele>
        <time>2021-05-26T20:08:10Z</time>
      </trkpt>
      <trkpt lat="45.26495" lon="4.60946">
        <ele>763</ele>
        <time>2021-05-26T20:08:41Z</time>
      </trkpt>
      <trkpt lat="45.26474" lon="4.60951">
        <ele>760</ele>
        <time>2021-05-26T20:09:09Z</time>
      </trkpt>
      <trkpt lat="45.26452" lon="4.60951">
        <ele>757</ele>
        <time>2021-05-26T20:09:38Z</time>
      </trkpt>
      <trkpt lat="45.26431" lon="4.60946">
        <ele>756</ele>
        <time>2021-05-26T20:10:07Z</time>
      </trkpt>
      <trkpt lat="45.26418" lon="4.60937">
        <ele>756</ele>
        <time>2021-05-26T20:10:26Z</time>
      </trkpt>
      <trkpt lat="45.26403" lon="4.60921">
        <ele>756</ele>
        <time>2021-05-26T20:10:51Z</time>
      </trkpt>
      <trkpt lat="45.26393" lon="4.60903">
        <ele>757</ele>
        <time>2021-05-26T20:11:13Z</time>
      </trkpt>
      <trkpt lat="45.26385" lon="4.60905">
        <ele>755</ele>
        <time>2021-05-26T20:11:23Z</time>
      </trkpt>
      <trkpt lat="45.26401" lon="4.60935">
        <ele>753</ele>
        <time>2021-05-26T20:11:59Z</time>
      </trkpt>
      <trkpt lat="45.26414" lon="4.60971">
        <ele>749</ele>
        <time>2021-05-26T20:12:37Z</time>
      </trkpt>
      <trkpt lat="45.26437" lon="4.61007">
        <ele>744</ele>
        <time>2021-05-26T20:13:22Z</time>
      </trkpt>
      <trkpt lat="45.26448" lon="4.6102">
        <ele>742</ele>
        <time>2021-05-26T20:13:42Z</time>
      </trkpt>
      <trkpt lat="45.2649" lon="4.61041">
        <ele>742</ele>
        <time>2021-05-26T20:14:41Z</time>
      </trkpt>
      <trkpt lat="45.26529" lon="4.61054">
        <ele>742</ele>
        <time>2021-05-26T20:15:34Z</time>
      </trkpt>
      <trkpt lat="45.2656" lon="4.61074">
        <ele>740</ele>
        <time>2021-05-26T20:16:20Z</time>
      </trkpt>
      <trkpt lat="45.2658" lon="4.61088">
        <ele>739</ele>
        <time>2021-05-26T20:16:50Z</time>
      </trkpt>
      <trkpt lat="45.26607" lon="4.61117">
        <ele>735</ele>
        <time>2021-05-26T20:17:35Z</time>
      </trkpt>
      <trkpt lat="45.26615" lon="4.61129">
        <ele>734</ele>
        <time>2021-05-26T20:17:50Z</time>
      </trkpt>
      <trkpt lat="45.26603" lon="4.61174">
        <ele>727</ele>
        <time>2021-05-26T20:18:36Z</time>
      </trkpt>
      <trkpt lat="45.26595" lon="4.61264">
        <ele>721</ele>
        <time>2021-05-26T20:20:01Z</time>
      </trkpt>
      <trkpt lat="45.26591" lon="4.61281">
        <ele>722</ele>
        <time>2021-05-26T20:20:18Z</time>
      </trkpt>
      <trkpt lat="45.26555" lon="4.61378">
        <ele>715</ele>
        <time>2021-05-26T20:22:01Z</time>
      </trkpt>
      <trkpt lat="45.26551" lon="4.61401">
        <ele>715</ele>
        <time>2021-05-26T20:22:23Z</time>
      </trkpt>
      <trkpt lat="45.26548" lon="4.61459">
        <ele>714</ele>
        <time>2021-05-26T20:23:17Z</time>
      </trkpt>
      <trkpt lat="45.26537" lon="4.61487">
        <ele>710</ele>
        <time>2021-05-26T20:23:48Z</time>
      </trkpt>
      <trkpt lat="45.26526" lon="4.61549">
        <ele>709</ele>
        <time>2021-05-26T20:24:48Z</time>
      </trkpt>
      <trkpt lat="45.26521" lon="4.61563">
        <ele>709</ele>
        <time>2021-05-26T20:25:02Z</time>
      </trkpt>
      <trkpt lat="45.26515" lon="4.61568">
        <ele>707</ele>
        <time>2021-05-26T20:25:12Z</time>
      </trkpt>
      <trkpt lat="45.26508" lon="4.61571">
        <ele>705</ele>
        <time>2021-05-26T20:25:21Z</time>
      </trkpt>
      <trkpt lat="45.26495" lon="4.61568">
        <ele>701</ele>
        <time>2021-05-26T20:25:39Z</time>
      </trkpt>
      <trkpt lat="45.26467" lon="4.6158">
        <ele>694</ele>
        <time>2021-05-26T20:26:18Z</time>
      </trkpt>
      <trkpt lat="45.26458" lon="4.61592">
        <ele>692</ele>
        <time>2021-05-26T20:26:34Z</time>
      </trkpt>
      <trkpt lat="45.26438" lon="4.61642">
        <ele>689</ele>
        <time>2021-05-26T20:27:28Z</time>
      </trkpt>
      <trkpt lat="45.26433" lon="4.61681">
        <ele>688</ele>
        <time>2021-05-26T20:28:06Z</time>
      </trkpt>
      <trkpt lat="45.26438" lon="4.61765">
        <ele>686</ele>
        <time>2021-05-26T20:29:25Z</time>
      </trkpt>
      <trkpt lat="45.2646" lon="4.61842">
        <ele>690</ele>
        <time>2021-05-26T20:30:43Z</time>
      </trkpt>
      <trkpt lat="45.26461" lon="4.61851">
        <ele>692</ele>
        <time>2021-05-26T20:30:52Z</time>
      </trkpt>
      <trkpt lat="45.26458" lon="4.61859">
        <ele>692</ele>
        <time>2021-05-26T20:31:00Z</time>
      </trkpt>
      <trkpt lat="45.26448" lon="4.61869">
        <ele>691</ele>
        <time>2021-05-26T20:31:16Z</time>
      </trkpt>
      <trkpt lat="45.26428" lon="4.61879">
        <ele>689</ele>
        <time>2021-05-26T20:31:45Z</time>
      </trkpt>
      <trkpt lat="45.26422" lon="4.61879">
        <ele>687</ele>
        <time>2021-05-26T20:31:53Z</time>
      </trkpt>
      <trkpt lat="45.26404" lon="4.61868">
        <ele>682</ele>
        <time>2021-05-26T20:32:19Z</time>
      </trkpt>
      <trkpt lat="45.26358" lon="4.61869">
        <ele>676</ele>
        <time>2021-05-26T20:33:20Z</time>
      </trkpt>
      <trkpt lat="45.2631" lon="4.61863">
        <ele>667</ele>
        <time>2021-05-26T20:34:24Z</time>
      </trkpt>
      <trkpt lat="45.26259" lon="4.61881">
        <ele>660</ele>
        <time>2021-05-26T20:35:35Z</time>
      </trkpt>
      <trkpt lat="45.26233" lon="4.61895">
        <ele>655</ele>
        <time>2021-05-26T20:36:12Z</time>
      </trkpt>
      <trkpt lat="45.26218" lon="4.61906">
        <ele>652</ele>
        <time>2021-05-26T20:36:34Z</time>
      </trkpt>
      <trkpt lat="45.26209" lon="4.61916">
        <ele>651</ele>
        <time>2021-05-26T20:36:49Z</time>
      </trkpt>
      <trkpt lat="45.26163" lon="4.61994">
        <ele>647</ele>
        <time>2021-05-26T20:38:25Z</time>
      </trkpt>
      <trkpt lat="45.26146" lon="4.62044">
        <ele>650</ele>
        <time>2021-05-26T20:39:17Z</time>
      </trkpt>
      <trkpt lat="45.26137" lon="4.62051">
        <ele>650</ele>
        <time>2021-05-26T20:39:31Z</time>
      </trkpt>
      <trkpt lat="45.26126" lon="4.62054">
        <ele>648</ele>
        <time>2021-05-26T20:39:46Z</time>
      </trkpt>
      <trkpt lat="45.26101" lon="4.6205">
        <ele>644</ele>
        <time>2021-05-26T20:40:19Z</time>
      </trkpt>
      <trkpt lat="45.26086" lon="4.62052">
        <ele>642</ele>
        <time>2021-05-26T20:40:40Z</time>
      </trkpt>
      <trkpt lat="45.26076" lon="4.62057">
        <ele>642</ele>
        <time>2021-05-26T20:40:54Z</time>
      </trkpt>
      <trkpt lat="45.26062" lon="4.6206">
        <ele>640</ele>
        <time>2021-05-26T20:41:13Z</time>
      </trkpt>
      <trkpt lat="45.26018" lon="4.62079">
        <ele>638</ele>
        <time>2021-05-26T20:42:14Z</time>
      </trkpt>
      <trkpt lat="45.26009" lon="4.62085">
        <ele>637</ele>
        <time>2021-05-26T20:42:27Z</time>
      </trkpt>
      <trkpt lat="45.25997" lon="4.62098">
        <ele>637</ele>
        <time>2021-05-26T20:42:47Z</time>
      </trkpt>
      <trkpt lat="45.25983" lon="4.62122">
        <ele>635</ele>
        <time>2021-05-26T20:43:17Z</time>
      </trkpt>
      <trkpt lat="45.25975" lon="4.62142">
        <ele>634</ele>
        <time>2021-05-26T20:43:38Z</time>
      </trkpt>
      <trkpt lat="45.25964" lon="4.62188">
        <ele>635</ele>
        <time>2021-05-26T20:44:24Z</time>
      </trkpt>
      <trkpt lat="45.25949" lon="4.62303">
        <ele>633</ele>
        <time>2021-05-26T20:46:14Z</time>
      </trkpt>
      <trkpt lat="45.25938" lon="4.62353">
        <ele>632</ele>
        <time>2021-05-26T20:47:03Z</time>
      </trkpt>
      <trkpt lat="45.25901" lon="4.62471">
        <ele>632</ele>
        <time>2021-05-26T20:49:04Z</time>
      </trkpt>
      <trkpt lat="45.25896" lon="4.625">
        <ele>633</ele>
        <time>2021-05-26T20:49:32Z</time>
      </trkpt>
      <trkpt lat="45.25895" lon="4.62523">
        <ele>629</ele>
        <time>2021-05-26T20:49:54Z</time>
      </trkpt>
      <trkpt lat="45.25883" lon="4.62552">
        <ele>625</ele>
        <time>2021-05-26T20:50:26Z</time>
      </trkpt>
      <trkpt lat="45.25865" lon="4.62577">
        <ele>622</ele>
        <time>2021-05-26T20:50:59Z</time>
      </trkpt>
      <trkpt lat="45.25853" lon="4.626">
        <ele>620</ele>
        <time>2021-05-26T20:51:26Z</time>
      </trkpt>
      <trkpt lat="45.25836" lon="4.6265">
        <ele>615</ele>
        <time>2021-05-26T20:52:18Z</time>
      </trkpt>
      <trkpt lat="45.25833" lon="4.62666">
        <ele>614</ele>
        <time>2021-05-26T20:52:34Z</time>
      </trkpt>
      <trkpt lat="45.25787" lon="4.62674">
        <ele>613</ele>
        <time>2021-05-26T20:53:36Z</time>
      </trkpt>
      <trkpt lat="45.25746" lon="4.62686">
        <ele>614</ele>
        <time>2021-05-26T20:54:31Z</time>
      </trkpt>
      <trkpt lat="45.25703" lon="4.62666">
        <ele>612</ele>
        <time>2021-05-26T20:55:32Z</time>
      </trkpt>
      <trkpt lat="45.25668" lon="4.62657">
        <ele>611</ele>
        <time>2021-05-26T20:56:19Z</time>
      </trkpt>
      <trkpt lat="45.25649" lon="4.62655">
        <ele>611</ele>
        <time>2021-05-26T20:56:45Z</time>
      </trkpt>
      <trkpt lat="45.25579" lon="4.62655">
        <ele>614</ele>
        <time>2021-05-26T20:58:18Z</time>
      </trkpt>
      <trkpt lat="45.25564" lon="4.62661">
        <ele>615</ele>
        <time>2021-05-26T20:58:39Z</time>
      </trkpt>
      <trkpt lat="45.2555" lon="4.62671">
        <ele>615</ele>
        <time>2021-05-26T20:59:00Z</time>
      </trkpt>
      <trkpt lat="45.25536" lon="4.62686">
        <ele>615</ele>
        <time>2021-05-26T20:59:23Z</time>
      </trkpt>
      <trkpt lat="45.25523" lon="4.62705">
        <ele>615</ele>
        <time>2021-05-26T20:59:48Z</time>
      </trkpt>
      <trkpt lat="45.25509" lon="4.62739">
        <ele>615</ele>
        <time>2021-05-26T21:00:25Z</time>
      </trkpt>
      <trkpt lat="45.25492" lon="4.62796">
        <ele>610</ele>
        <time>2021-05-26T21:01:23Z</time>
      </trkpt>
      <trkpt lat="45.2549" lon="4.62821">
        <ele>608</ele>
        <time>2021-05-26T21:01:47Z</time>
      </trkpt>
      <trkpt lat="45.25498" lon="4.62856">
        <ele>606</ele>
        <time>2021-05-26T21:02:22Z</time>
      </trkpt>
      <trkpt lat="45.25523" lon="4.62924">
        <ele>602</ele>
        <time>2021-05-26T21:03:34Z</time>
      </trkpt>
      <trkpt lat="45.25546" lon="4.63031">
        <ele>592</ele>
        <time>2021-05-26T21:05:19Z</time>
      </trkpt>
      <trkpt lat="45.25562" lon="4.63082">
        <ele>590</ele>
        <time>2021-05-26T21:06:11Z</time>
      </trkpt>
      <trkpt lat="45.25562" lon="4.6309">
        <ele>590</ele>
        <time>2021-05-26T21:06:19Z</time>
      </trkpt>
      <trkpt lat="45.25539" lon="4.63139">
        <ele>583</ele>
        <time>2021-05-26T21:07:14Z</time>
      </trkpt>
      <trkpt lat="45.25537" lon="4.63151">
        <ele>582</ele>
        <time>2021-05-26T21:07:26Z</time>
      </trkpt>
      <trkpt lat="45.25536" lon="4.63172">
        <ele>581</ele>
        <time>2021-05-26T21:07:45Z</time>
      </trkpt>
      <trkpt lat="45.25541" lon="4.6323">
        <ele>577</ele>
        <time>2021-05-26T21:08:40Z</time>
      </trkpt>
      <trkpt lat="45.25541" lon="4.63281">
        <ele>575</ele>
        <time>2021-05-26T21:09:28Z</time>
      </trkpt>
      <trkpt lat="45.25539" lon="4.63294">
        <ele>575</ele>
        <time>2021-05-26T21:09:41Z</time>
      </trkpt>
      <trkpt lat="45.25525" lon="4.63312">
        <ele>573</ele>
        <time>2021-05-26T21:10:06Z</time>
      </trkpt>
      <trkpt lat="45.25517" lon="4.63316">
        <ele>573</ele>
        <time>2021-05-26T21:10:17Z</time>
      </trkpt>
      <trkpt lat="45.25508" lon="4.63316">
        <ele>572</ele>
        <time>2021-05-26T21:10:29Z</time>
      </trkpt>
      <trkpt lat="45.25485" lon="4.63306">
        <ele>572</ele>
        <time>2021-05-26T21:11:01Z</time>
      </trkpt>
      <trkpt lat="45.25402" lon="4.6328">
        <ele>575</ele>
        <time>2021-05-26T21:12:55Z</time>
      </trkpt>
      <trkpt lat="45.2527" lon="4.63211">
        <ele>581</ele>
        <time>2021-05-26T21:16:02Z</time>
      </trkpt>
      <trkpt lat="45.25199" lon="4.63159">
        <ele>582</ele>
        <time>2021-05-26T21:17:49Z</time>
      </trkpt>
      <trkpt lat="45.25167" lon="4.63139">
        <ele>584</ele>
        <time>2021-05-26T21:18:36Z</time>
      </trkpt>
      <trkpt lat="45.25079" lon="4.63109">
        <ele>585</ele>
        <time>2021-05-26T21:20:36Z</time>
      </trkpt>
      <trkpt lat="45.25065" lon="4.6311">
        <ele>585</ele>
        <time>2021-05-26T21:20:55Z</time>
      </trkpt>
      <trkpt lat="45.25054" lon="4.63117">
        <ele>585</ele>
        <time>2021-05-26T21:21:11Z</time>
      </trkpt>
      <trkpt lat="45.25037" lon="4.63137">
        <ele>585</ele>
        <time>2021-05-26T21:21:41Z</time>
      </trkpt>
      <trkpt lat="45.25022" lon="4.63161">
        <ele>584</ele>
        <time>2021-05-26T21:22:11Z</time>
      </trkpt>
      <trkpt lat="45.25008" lon="4.63195">
        <ele>579</ele>
        <time>2021-05-26T21:22:48Z</time>
      </trkpt>
      <trkpt lat="45.25006" lon="4.63213">
        <ele>577</ele>
        <time>2021-05-26T21:23:05Z</time>
      </trkpt>
      <trkpt lat="45.25009" lon="4.63233">
        <ele>575</ele>
        <time>2021-05-26T21:23:24Z</time>
      </trkpt>
      <trkpt lat="45.25022" lon="4.63269">
        <ele>573</ele>
        <time>2021-05-26T21:24:02Z</time>
      </trkpt>
      <trkpt lat="45.25066" lon="4.63355">
        <ele>570</ele>
        <time>2021-05-26T21:25:42Z</time>
      </trkpt>
      <trkpt lat="45.25074" lon="4.63381">
        <ele>569</ele>
        <time>2021-05-26T21:26:09Z</time>
      </trkpt>
      <trkpt lat="45.25074" lon="4.63419">
        <ele>566</ele>
        <time>2021-05-26T21:26:44Z</time>
      </trkpt>
      <trkpt lat="45.25066" lon="4.63448">
        <ele>563</ele>
        <time>2021-05-26T21:27:14Z</time>
      </trkpt>
      <trkpt lat="45.25051" lon="4.63533">
        <ele>554</ele>
        <time>2021-05-26T21:28:36Z</time>
      </trkpt>
      <trkpt lat="45.25045" lon="4.63532">
        <ele>553</ele>
        <time>2021-05-26T21:28:44Z</time>
      </trkpt>
      <trkpt lat="45.25031" lon="4.6354">
        <ele>549</ele>
        <time>2021-05-26T21:29:04Z</time>
      </trkpt>
      <trkpt lat="45.2498" lon="4.63574">
        <ele>536</ele>
        <time>2021-05-26T21:30:19Z</time>
      </trkpt>
      <trkpt lat="45.24963" lon="4.63593">
        <ele>531</ele>
        <time>2021-05-26T21:30:48Z</time>
      </trkpt>
      <trkpt lat="45.24961" lon="4.6361">
        <ele>530</ele>
        <time>2021-05-26T21:31:04Z</time>
      </trkpt>
      <trkpt lat="45.24953" lon="4.63619">
        <ele>529</ele>
        <time>2021-05-26T21:31:18Z</time>
      </trkpt>
      <trkpt lat="45.24938" lon="4.63655">
        <ele>524</ele>
        <time>2021-05-26T21:31:57Z</time>
      </trkpt>
      <trkpt lat="45.24915" lon="4.63688">
        <ele>519</ele>
        <time>2021-05-26T21:32:41Z</time>
      </trkpt>
      <trkpt lat="45.24888" lon="4.63746">
        <ele>515</ele>
        <time>2021-05-26T21:33:46Z</time>
      </trkpt>
      <trkpt lat="45.24866" lon="4.63782">
        <ele>513</ele>
        <time>2021-05-26T21:34:31Z</time>
      </trkpt>
      <trkpt lat="45.24859" lon="4.638">
        <ele>513</ele>
        <time>2021-05-26T21:34:50Z</time>
      </trkpt>
      <trkpt lat="45.24853" lon="4.63809">
        <ele>512</ele>
        <time>2021-05-26T21:35:02Z</time>
      </trkpt>
      <trkpt lat="45.24841" lon="4.63811">
        <ele>511</ele>
        <time>2021-05-26T21:35:18Z</time>
      </trkpt>
      <trkpt lat="45.24833" lon="4.63753">
        <ele>508</ele>
        <time>2021-05-26T21:36:14Z</time>
      </trkpt>
      <trkpt lat="45.24819" lon="4.63707">
        <ele>506</ele>
        <time>2021-05-26T21:37:01Z</time>
      </trkpt>
      <trkpt lat="45.2482" lon="4.63647">
        <ele>506</ele>
        <time>2021-05-26T21:37:57Z</time>
      </trkpt>
      <trkpt lat="45.24814" lon="4.63619">
        <ele>506</ele>
        <time>2021-05-26T21:38:25Z</time>
      </trkpt>
      <trkpt lat="45.24747" lon="4.63535">
        <ele>504</ele>
        <time>2021-05-26T21:40:24Z</time>
      </trkpt>
      <trkpt lat="45.24699" lon="4.63445">
        <ele>506</ele>
        <time>2021-05-26T21:42:10Z</time>
      </trkpt>
      <trkpt lat="45.24658" lon="4.63379">
        <ele>507</ele>
        <time>2021-05-26T21:43:33Z</time>
      </trkpt>
      <trkpt lat="45.24626" lon="4.63336">
        <ele>508</ele>
        <time>2021-05-26T21:44:31Z</time>
      </trkpt>
      <trkpt lat="45.24618" lon="4.6333">
        <ele>508</ele>
        <time>2021-05-26T21:44:44Z</time>
      </trkpt>
      <trkpt lat="45.24599" lon="4.6332">
        <ele>506</ele>
        <time>2021-05-26T21:45:11Z</time>
      </trkpt>
      <trkpt lat="45.24565" lon="4.63312">
        <ele>503</ele>
        <time>2021-05-26T21:45:57Z</time>
      </trkpt>
      <trkpt lat="45.24551" lon="4.63305">
        <ele>503</ele>
        <time>2021-05-26T21:46:16Z</time>
      </trkpt>
      <trkpt lat="45.24515" lon="4.63294">
        <ele>500</ele>
        <time>2021-05-26T21:47:06Z</time>
      </trkpt>
      <trkpt lat="45.24497" lon="4.63286">
        <ele>499</ele>
        <time>2021-05-26T21:47:31Z</time>
      </trkpt>
      <trkpt lat="45.24462" lon="4.63286">
        <ele>495</ele>
        <time>2021-05-26T21:48:17Z</time>
      </trkpt>
      <trkpt lat="45.24426" lon="4.6327">
        <ele>493</ele>
        <time>2021-05-26T21:49:08Z</time>
      </trkpt>
      <trkpt lat="45.24365" lon="4.63258">
        <ele>488</ele>
        <time>2021-05-26T21:50:30Z</time>
      </trkpt>
      <trkpt lat="45.2436" lon="4.63249">
        <ele>489</ele>
        <time>2021-05-26T21:50:41Z</time>
      </trkpt>
      <trkpt lat="45.24337" lon="4.63246">
        <ele>487</ele>
        <time>2021-05-26T21:51:11Z</time>
      </trkpt>
      <trkpt lat="45.24252" lon="4.63255">
        <ele>477</ele>
        <time>2021-05-26T21:53:05Z</time>
      </trkpt>
      <trkpt lat="45.24195" lon="4.63257">
        <ele>472</ele>
        <time>2021-05-26T21:54:21Z</time>
      </trkpt>
      <trkpt lat="45.24186" lon="4.63256">
        <ele>472</ele>
        <time>2021-05-26T21:54:33Z</time>
      </trkpt>
      <trkpt lat="45.24143" lon="4.63237">
        <ele>469</ele>
        <time>2021-05-26T21:55:33Z</time>
      </trkpt>
      <trkpt lat="45.24126" lon="4.63232">
        <ele>467</ele>
        <time>2021-05-26T21:55:57Z</time>
      </trkpt>
      <trkpt lat="45.24116" lon="4.63233">
        <ele>465</ele>
        <time>2021-05-26T21:56:10Z</time>
      </trkpt>
      <trkpt lat="45.24087" lon="4.63255">
        <ele>459</ele>
        <time>2021-05-26T21:56:54Z</time>
      </trkpt>
      <trkpt lat="45.24073" lon="4.63227">
        <ele>457</ele>
        <time>2021-05-26T21:57:26Z</time>
      </trkpt>
      <trkpt lat="45.24069" lon="4.63211">
        <ele>457</ele>
        <time>2021-05-26T21:57:42Z</time>
      </trkpt>
      <trkpt lat="45.2405" lon="4.63075">
        <ele>461</ele>
        <time>2021-05-26T21:59:52Z</time>
      </trkpt>
      <trkpt lat="45.24042" lon="4.63054">
        <ele>461</ele>
        <time>2021-05-26T22:00:15Z</time>
      </trkpt>
      <trkpt lat="45.23984" lon="4.62957">
        <ele>455</ele>
        <time>2021-05-26T22:02:14Z</time>
      </trkpt>
      <trkpt lat="45.23963" lon="4.62913">
        <ele>454</ele>
        <time>2021-05-26T22:03:04Z</time>
      </trkpt>
      <trkpt lat="45.23941" lon="4.62848">
        <ele>452</ele>
        <time>2021-05-26T22:04:12Z</time>
      </trkpt>
      <trkpt lat="45.23916" lon="4.62796">
        <ele>446</ele>
        <time>2021-05-26T22:05:11Z</time>
      </trkpt>
      <trkpt lat="45.23911" lon="4.62772">
        <ele>444</ele>
        <time>2021-05-26T22:05:35Z</time>
      </trkpt>
      <trkpt lat="45.23913" lon="4.62757">
        <ele>444</ele>
        <time>2021-05-26T22:05:49Z</time>
      </trkpt>
      <trkpt lat="45.2392" lon="4.62718">
        <ele>441</ele>
        <time>2021-05-26T22:06:27Z</time>
      </trkpt>
      <trkpt lat="45.23936" lon="4.62675">
        <ele>435</ele>
        <time>2021-05-26T22:07:13Z</time>
      </trkpt>
      <trkpt lat="45.23943" lon="4.62662">
        <ele>434</ele>
        <time>2021-05-26T22:07:28Z</time>
      </trkpt>
      <trkpt lat="45.23964" lon="4.62646">
        <ele>434</ele>
        <time>2021-05-26T22:08:00Z</time>
      </trkpt>
      <trkpt lat="45.24015" lon="4.62622">
        <ele>431</ele>
        <time>2021-05-26T22:09:12Z</time>
      </trkpt>
      <trkpt lat="45.24033" lon="4.6262">
        <ele>428</ele>
        <time>2021-05-26T22:09:36Z</time>
      </trkpt>
      <trkpt lat="45.24091" lon="4.62647">
        <ele>430</ele>
        <time>2021-05-26T22:10:57Z</time>
      </trkpt>
      <trkpt lat="45.24126" lon="4.6266">
        <ele>433</ele>
        <time>2021-05-26T22:11:45Z</time>
      </trkpt>
      <trkpt lat="45.24143" lon="4.62671">
        <ele>434</ele>
        <time>2021-05-26T22:12:10Z</time>
      </trkpt>
      <trkpt lat="45.2415" lon="4.62671">
        <ele>433</ele>
        <time>2021-05-26T22:12:20Z</time>
      </trkpt>
      <trkpt lat="45.24155" lon="4.62664">
        <ele>432</ele>
        <time>2021-05-26T22:12:29Z</time>
      </trkpt>
      <trkpt lat="45.24157" lon="4.62655">
        <ele>431</ele>
        <time>2021-05-26T22:12:38Z</time>
      </trkpt>
      <trkpt lat="45.24156" lon="4.62563">
        <ele>419</ele>
        <time>2021-05-26T22:14:04Z</time>
      </trkpt>
      <trkpt lat="45.24164" lon="4.62528">
        <ele>417</ele>
        <time>2021-05-26T22:14:39Z</time>
      </trkpt>
      <trkpt lat="45.24174" lon="4.6251">
        <ele>417</ele>
        <time>2021-05-26T22:15:00Z</time>
      </trkpt>
      <trkpt lat="45.24222" lon="4.62465">
        <ele>427</ele>
        <time>2021-05-26T22:16:17Z</time>
      </trkpt>
      <trkpt lat="45.24225" lon="4.62457">
        <ele>427</ele>
        <time>2021-05-26T22:16:26Z</time>
      </trkpt>
      <trkpt lat="45.24223" lon="4.62444">
        <ele>426</ele>
        <time>2021-05-26T22:16:38Z</time>
      </trkpt>
      <trkpt lat="45.2422" lon="4.62436">
        <ele>426</ele>
        <time>2021-05-26T22:16:47Z</time>
      </trkpt>
      <trkpt lat="45.24214" lon="4.62431">
        <ele>426</ele>
        <time>2021-05-26T22:16:56Z</time>
      </trkpt>
      <trkpt lat="45.24206" lon="4.6243">
        <ele>427</ele>
        <time>2021-05-26T22:17:07Z</time>
      </trkpt>
      <trkpt lat="45.24177" lon="4.62438">
        <ele>426</ele>
        <time>2021-05-26T22:17:46Z</time>
      </trkpt>
      <trkpt lat="45.24129" lon="4.62459">
        <ele>418</ele>
        <time>2021-05-26T22:18:53Z</time>
      </trkpt>
      <trkpt lat="45.24119" lon="4.62461">
        <ele>416</ele>
        <time>2021-05-26T22:19:07Z</time>
      </trkpt>
      <trkpt lat="45.24112" lon="4.62456">
        <ele>416</ele>
        <time>2021-05-26T22:19:17Z</time>
      </trkpt>
      <trkpt lat="45.24089" lon="4.62419">
        <ele>423</ele>
        <time>2021-05-26T22:20:03Z</time>
      </trkpt>
      <trkpt lat="45.24071" lon="4.62402">
        <ele>426</ele>
        <time>2021-05-26T22:20:32Z</time>
      </trkpt>
      <trkpt lat="45.24035" lon="4.6238">
        <ele>427</ele>
        <time>2021-05-26T22:21:25Z</time>
      </trkpt>
      <trkpt lat="45.24018" lon="4.62376">
        <ele>425</ele>
        <time>2021-05-26T22:21:48Z</time>
      </trkpt>
      <trkpt lat="45.2399" lon="4.62365">
        <ele>424</ele>
        <time>2021-05-26T22:22:26Z</time>
      </trkpt>
      <trkpt lat="45.2396" lon="4.62351">
        <ele>423</ele>
        <time>2021-05-26T22:23:09Z</time>
      </trkpt>
      <trkpt lat="45.23942" lon="4.62339">
        <ele>424</ele>
        <time>2021-05-26T22:23:35Z</time>
      </trkpt>
      <trkpt lat="45.23927" lon="4.62325">
        <ele>423</ele>
        <time>2021-05-26T22:23:59Z</time>
      </trkpt>
      <trkpt lat="45.23918" lon="4.62311">
        <ele>424</ele>
        <time>2021-05-26T22:24:17Z</time>
      </trkpt>
      <trkpt lat="45.23902" lon="4.62274">
        <ele>424</ele>
        <time>2021-05-26T22:24:58Z</time>
      </trkpt>
      <trkpt lat="45.23893" lon="4.62246">
        <ele>425</ele>
        <time>2021-05-26T22:25:27Z</time>
      </trkpt>
      <trkpt lat="45.23836" lon="4.62138">
        <ele>425</ele>
        <time>2021-05-26T22:27:33Z</time>
      </trkpt>
      <trkpt lat="45.2383" lon="4.62122">
        <ele>425</ele>
        <time>2021-05-26T22:27:50Z</time>
      </trkpt>
      <trkpt lat="45.23826" lon="4.621">
        <ele>427</ele>
        <time>2021-05-26T22:28:12Z</time>
      </trkpt>
      <trkpt lat="45.23825" lon="4.62034">
        <ele>432</ele>
        <time>2021-05-26T22:29:14Z</time>
      </trkpt>
      <trkpt lat="45.23817" lon="4.61976">
        <ele>432</ele>
        <time>2021-05-26T22:30:09Z</time>
      </trkpt>
      <trkpt lat="45.23822" lon="4.61911">
        <ele>434</ele>
        <time>2021-05-26T22:31:11Z</time>
      </trkpt>
      <trkpt lat="45.23819" lon="4.61891">
        <ele>435</ele>
        <time>2021-05-26T22:31:30Z</time>
      </trkpt>
      <trkpt lat="45.23812" lon="4.61868">
        <ele>435</ele>
        <time>2021-05-26T22:31:54Z</time>
      </trkpt>
      <trkpt lat="45.23796" lon="4.61844">
        <ele>432</ele>
        <time>2021-05-26T22:32:25Z</time>
      </trkpt>
      <trkpt lat="45.23765" lon="4.61805">
        <ele>428</ele>
        <time>2021-05-26T22:33:20Z</time>
      </trkpt>
      <trkpt lat="45.23751" lon="4.61782">
        <ele>427</ele>
        <time>2021-05-26T22:33:48Z</time>
      </trkpt>
      <trkpt lat="45.23734" lon="4.61732">
        <ele>422</ele>
        <time>2021-05-26T22:34:41Z</time>
      </trkpt>
      <trkpt lat="45.23724" lon="4.6171">
        <ele>418</ele>
        <time>2021-05-26T22:35:05Z</time>
      </trkpt>
      <trkpt lat="45.23719" lon="4.6169">
        <ele>417</ele>
        <time>2021-05-26T22:35:25Z</time>
      </trkpt>
      <trkpt lat="45.23721" lon="4.61675">
        <ele>418</ele>
        <time>2021-05-26T22:35:40Z</time>
      </trkpt>
      <trkpt lat="45.2373" lon="4.61657">
        <ele>419</ele>
        <time>2021-05-26T22:36:00Z</time>
      </trkpt>
      <trkpt lat="45.23742" lon="4.6164">
        <ele>419</ele>
        <time>2021-05-26T22:36:23Z</time>
      </trkpt>
      <trkpt lat="45.23752" lon="4.61635">
        <ele>419</ele>
        <time>2021-05-26T22:36:37Z</time>
      </trkpt>
      <trkpt lat="45.23763" lon="4.61632">
        <ele>419</ele>
        <time>2021-05-26T22:36:52Z</time>
      </trkpt>
      <trkpt lat="45.23801" lon="4.61632">
        <ele>420</ele>
        <time>2021-05-26T22:37:43Z</time>
      </trkpt>
      <trkpt lat="45.23842" lon="4.61623">
        <ele>419</ele>
        <time>2021-05-26T22:38:38Z</time>
      </trkpt>
      <trkpt lat="45.23897" lon="4.61596">
        <ele>415</ele>
        <time>2021-05-26T22:39:56Z</time>
      </trkpt>
      <trkpt lat="45.23918" lon="4.61579">
        <ele>414</ele>
        <time>2021-05-26T22:40:28Z</time>
      </trkpt>
      <trkpt lat="45.23925" lon="4.61569">
        <ele>416</ele>
        <time>2021-05-26T22:40:41Z</time>
      </trkpt>
      <trkpt lat="45.23925" lon="4.61555">
        <ele>417</ele>
        <time>2021-05-26T22:40:54Z</time>
      </trkpt>
      <trkpt lat="45.23921" lon="4.6155">
        <ele>417</ele>
        <time>2021-05-26T22:41:01Z</time>
      </trkpt>
      <trkpt lat="45.23909" lon="4.61543">
        <ele>416</ele>
        <time>2021-05-26T22:41:19Z</time>
      </trkpt>
      <trkpt lat="45.23828" lon="4.61537">
        <ele>413</ele>
        <time>2021-05-26T22:43:07Z</time>
      </trkpt>
      <trkpt lat="45.23802" lon="4.61527">
        <ele>412</ele>
        <time>2021-05-26T22:43:43Z</time>
      </trkpt>
      <trkpt lat="45.23737" lon="4.6148">
        <ele>409</ele>
        <time>2021-05-26T22:45:20Z</time>
      </trkpt>
      <trkpt lat="45.23711" lon="4.61467">
        <ele>408</ele>
        <time>2021-05-26T22:45:57Z</time>
      </trkpt>
      <trkpt lat="45.23667" lon="4.61415">
        <ele>405</ele>
        <time>2021-05-26T22:47:13Z</time>
      </trkpt>
      <trkpt lat="45.23656" lon="4.61406">
        <ele>404</ele>
        <time>2021-05-26T22:47:30Z</time>
      </trkpt>
      <trkpt lat="45.23675" lon="4.61553">
        <ele>404</ele>
        <time>2021-05-26T22:49:51Z</time>
      </trkpt>
      <trkpt lat="45.23669" lon="4.61564">
        <ele>403</ele>
        <time>2021-05-26T22:50:04Z</time>
      </trkpt>
    </trkseg>
  </trk>
</gpx>